^^
Station Historical Data
Daily Summary for January 8, 2017 Units:  English    Metric   Both
« Previous Day
Next Day »
Daily Weekly Monthly Yearly Custom
  High: Low: Average:
Temperature: 24.4 °F 12.7 °F 17.6 °F
Dew Point: 11.0 °F 0.6 °F 5 °F
Humidity: 74 % 42 % 58 %
Wind Speed: 18.7 mph 1.5 mph 7.8 mph
Wind Gust: 25.3 mph - -
Wind:- - WNW
Pressure: 30.68 in 30.26 in -
Precipitation: 0.00 in    
Historical Graphs
 
 
Tabular Data for January 8, 2017
Time Temperature Dew Point Pressure Wind Wind Speed Wind Gust Humidity Rainfall Rate (Hourly) solar Conditions
00:03 17.4 °F 5.1 °F 30.26 in WNW 5.6 mph 9.2 mph 58 % 0.00 in 0.0 W/m2 CLR
00:08 17.4 °F 5.1 °F 30.26 in WNW 7.2 mph 12.7 mph 58 % 0.00 in 0.0 W/m2 CLR
00:13 17.4 °F 5.1 °F 30.26 in WNW 9.3 mph 12.7 mph 58 % 0.00 in 0.0 W/m2 CLR
00:18 17.4 °F 4.7 °F 30.26 in NW 6.3 mph 10.4 mph 57 % 0.00 in 0.0 W/m2 CLR
00:23 17.4 °F 4.7 °F 30.26 in NW 4.0 mph 11.5 mph 57 % 0.00 in 0.0 W/m2 CLR
00:28 17.3 °F 4.7 °F 30.26 in NW 2.4 mph 10.4 mph 57 % 0.00 in 0.0 W/m2 CLR
00:33 17.2 °F 4.9 °F 30.26 in WNW 4.1 mph 8.1 mph 58 % 0.00 in 0.0 W/m2 CLR
00:38 17.2 °F 4.9 °F 30.26 in WNW 5.2 mph 8.0 mph 58 % 0.00 in 0.0 W/m2 CLR
00:43 17.2 °F 4.9 °F 30.26 in WNW 2.3 mph 4.6 mph 58 % 0.00 in 0.0 W/m2 CLR
00:48 17.1 °F 4.8 °F 30.26 in NW 3.8 mph 9.0 mph 58 % 0.00 in 0.0 W/m2 CLR
00:53 17.0 °F 4.7 °F 30.26 in WNW 5.0 mph 5.8 mph 58 % 0.00 in 0.0 W/m2 CLR
00:58 16.9 °F 4.7 °F 30.26 in WNW 4.6 mph 8.0 mph 58 % 0.00 in 0.0 W/m2 CLR
01:03 16.8 °F 4.6 °F 30.26 in WNW 2.2 mph 4.6 mph 58 % 0.00 in 0.0 W/m2 CLR
01:08 16.8 °F 4.6 °F 30.26 in West 5.3 mph 8.1 mph 58 % 0.00 in 0.0 W/m2 CLR
01:13 16.8 °F 4.6 °F 30.26 in WNW 8.0 mph 11.5 mph 58 % 0.00 in 0.0 W/m2 CLR
01:18 16.8 °F 4.6 °F 30.26 in WNW 4.1 mph 8.1 mph 58 % 0.00 in 0.0 W/m2 CLR
01:23 16.9 °F 4.7 °F 30.26 in WNW 2.2 mph 6.9 mph 58 % 0.00 in 0.0 W/m2 CLR
01:28 16.9 °F 4.7 °F 30.26 in West 7.1 mph 10.4 mph 58 % 0.00 in 0.0 W/m2 CLR
01:33 16.8 °F 4.6 °F 30.27 in West 5.2 mph 9.0 mph 58 % 0.00 in 0.0 W/m2 CLR
01:38 16.9 °F 4.7 °F 30.27 in WNW 4.1 mph 7.0 mph 58 % 0.00 in 0.0 W/m2 CLR
01:43 16.9 °F 4.7 °F 30.27 in West 4.3 mph 10.4 mph 58 % 0.00 in 0.0 W/m2 CLR
01:48 16.8 °F 4.6 °F 30.27 in West 6.1 mph 8.1 mph 58 % 0.00 in 0.0 W/m2 CLR
01:53 16.8 °F 4.6 °F 30.27 in NNW 4.1 mph 7.0 mph 58 % 0.00 in 0.0 W/m2 CLR
01:58 16.8 °F 4.6 °F 30.27 in WNW 4.7 mph 11.0 mph 58 % 0.00 in 0.0 W/m2 CLR
02:03 16.8 °F 4.6 °F 30.28 in WNW 8.1 mph 11.5 mph 58 % 0.00 in 0.0 W/m2 CLR
02:08 16.8 °F 4.6 °F 30.28 in WNW 6.0 mph 6.9 mph 58 % 0.00 in 0.0 W/m2 CLR
02:13 16.8 °F 4.6 °F 30.28 in West 6.8 mph 12.7 mph 58 % 0.00 in 0.0 W/m2 CLR
02:19 16.7 °F 4.5 °F 30.28 in NW 3.7 mph 11.5 mph 58 % 0.00 in 0.0 W/m2 CLR
02:24 16.6 °F 4.4 °F 30.29 in West 6.9 mph 10.4 mph 58 % 0.00 in 0.0 W/m2 CLR
02:29 16.5 °F 4.3 °F 30.29 in WNW 12.3 mph 19.6 mph 58 % 0.00 in 0.0 W/m2 CLR
02:34 16.6 °F 4.4 °F 30.29 in WNW 11.3 mph 16.1 mph 58 % 0.00 in 0.0 W/m2 CLR
02:39 16.6 °F 4.4 °F 30.30 in WNW 7.5 mph 11.5 mph 58 % 0.00 in 0.0 W/m2 CLR
02:44 16.5 °F 4.3 °F 30.30 in WNW 4.4 mph 6.9 mph 58 % 0.00 in 0.0 W/m2 CLR
02:49 16.5 °F 4.3 °F 30.30 in West 5.1 mph 9.2 mph 58 % 0.00 in 0.0 W/m2 CLR
02:54 16.3 °F 4.1 °F 30.30 in WNW 9.0 mph 16.1 mph 58 % 0.00 in 0.0 W/m2 CLR
02:59 16.3 °F 4.1 °F 30.30 in WNW 6.5 mph 11.5 mph 58 % 0.00 in 0.0 W/m2 CLR
03:04 16.1 °F 4.3 °F 30.30 in West 3.7 mph 8.1 mph 59 % 0.00 in 0.0 W/m2 CLR
03:09 16.1 °F 4.3 °F 30.30 in West 4.0 mph 6.9 mph 59 % 0.00 in 0.0 W/m2 CLR
03:14 15.9 °F 4.1 °F 30.30 in WNW 7.9 mph 15.0 mph 59 % 0.00 in 0.0 W/m2 CLR
03:19 15.9 °F 4.1 °F 30.30 in WNW 9.8 mph 15.0 mph 59 % 0.00 in 0.0 W/m2 CLR
03:24 15.8 °F 4.0 °F 30.30 in WNW 8.8 mph 15.0 mph 59 % 0.00 in 0.0 W/m2 CLR
03:29 15.8 °F 4.0 °F 30.30 in WNW 6.6 mph 10.4 mph 59 % 0.00 in 0.0 W/m2 CLR
03:34 15.8 °F 4.0 °F 30.31 in West 8.1 mph 13.0 mph 59 % 0.00 in 0.0 W/m2 CLR
03:39 15.7 °F 4.3 °F 30.30 in NW 7.4 mph 11.5 mph 60 % 0.00 in 0.0 W/m2 CLR
03:44 15.6 °F 4.2 °F 30.31 in NW 7.6 mph 12.7 mph 60 % 0.00 in 0.0 W/m2 CLR
03:49 15.6 °F 4.2 °F 30.31 in West 6.2 mph 9.2 mph 60 % 0.00 in 0.0 W/m2 CLR
03:54 15.6 °F 4.2 °F 30.30 in West 11.8 mph 18.4 mph 60 % 0.00 in 0.0 W/m2 CLR
03:59 15.7 °F 4.3 °F 30.31 in WNW 5.5 mph 10.0 mph 60 % 0.00 in 0.0 W/m2 CLR
04:04 15.7 °F 4.3 °F 30.31 in West 4.7 mph 8.1 mph 60 % 0.00 in 0.0 W/m2 CLR
04:09 15.7 °F 4.6 °F 30.31 in WNW 6.7 mph 7.0 mph 61 % 0.00 in 0.0 W/m2 CLR
04:14 15.6 °F 4.5 °F 30.31 in West 5.7 mph 9.2 mph 61 % 0.00 in 0.0 W/m2 CLR
04:19 15.5 °F 4.8 °F 30.31 in WSW 5.6 mph 9.2 mph 62 % 0.00 in 0.0 W/m2 CLR
04:24 15.5 °F 4.8 °F 30.31 in West 4.2 mph 8.1 mph 62 % 0.00 in 0.0 W/m2 CLR
04:29 15.5 °F 4.8 °F 30.32 in West 4.6 mph 8.1 mph 62 % 0.00 in 0.0 W/m2 CLR
04:34 15.4 °F 4.7 °F 30.32 in West 7.1 mph 10.4 mph 62 % 0.00 in 0.0 W/m2 CLR
04:39 15.3 °F 4.6 °F 30.32 in West 7.0 mph 10.4 mph 62 % 0.00 in 0.0 W/m2 CLR
04:44 15.3 °F 4.6 °F 30.32 in West 7.8 mph 15.0 mph 62 % 0.00 in 0.0 W/m2 CLR
04:49 15.2 °F 4.5 °F 30.32 in NW 8.6 mph 11.5 mph 62 % 0.00 in 0.0 W/m2 CLR
04:54 15.2 °F 4.5 °F 30.32 in West 8.2 mph 12.7 mph 62 % 0.00 in 0.0 W/m2 CLR
04:59 15.1 °F 4.1 °F 30.32 in West 10.2 mph 13.8 mph 61 % 0.00 in 0.0 W/m2 CLR
05:04 15.0 °F 4.3 °F 30.32 in WSW 8.6 mph 11.5 mph 62 % 0.00 in 0.0 W/m2 CLR
05:09 14.9 °F 4.2 °F 30.33 in West 8.0 mph 16.1 mph 62 % 0.00 in 0.0 W/m2 CLR
05:14 14.8 °F 4.1 °F 30.33 in West 10.2 mph 15.0 mph 62 % 0.00 in 0.0 W/m2 CLR
05:19 14.7 °F 4.0 °F 30.33 in West 8.2 mph 11.5 mph 62 % 0.00 in 0.0 W/m2 CLR
05:24 14.6 °F 3.9 °F 30.33 in WSW 7.3 mph 13.8 mph 62 % 0.00 in 0.0 W/m2 CLR
05:34 14.3 °F 3.6 °F 30.33 in West 5.7 mph 9.2 mph 62 % 0.00 in 0.0 W/m2 CLR
05:39 14.3 °F 4.0 °F 30.33 in West 6.8 mph 11.0 mph 63 % 0.00 in 0.0 W/m2 CLR
05:44 14.2 °F 3.9 °F 30.34 in West 3.3 mph 5.8 mph 63 % 0.00 in 0.0 W/m2 CLR
05:49 14.1 °F 3.8 °F 30.34 in West 5.5 mph 10.4 mph 63 % 0.00 in 0.0 W/m2 CLR
05:54 14.0 °F 3.7 °F 30.34 in West 10.0 mph 13.8 mph 63 % 0.00 in 0.0 W/m2 CLR
05:59 14.0 °F 3.7 °F 30.34 in WNW 8.2 mph 11.5 mph 63 % 0.00 in 0.0 W/m2 CLR
06:04 14.0 °F 3.4 °F 30.34 in WSW 6.9 mph 13.0 mph 62 % 0.00 in 0.0 W/m2 CLR
06:09 14.0 °F 3.4 °F 30.34 in West 10.0 mph 12.7 mph 62 % 0.00 in 0.0 W/m2 CLR
06:14 14.0 °F 3.4 °F 30.34 in West 4.4 mph 10.0 mph 62 % 0.00 in 0.0 W/m2 CLR
06:19 13.9 °F 3.3 °F 30.34 in West 7.8 mph 11.5 mph 62 % 0.00 in 0.0 W/m2 CLR
06:24 13.9 °F 3.3 °F 30.35 in West 8.8 mph 13.8 mph 62 % 0.00 in 0.0 W/m2 CLR
06:29 13.8 °F 3.2 °F 30.35 in West 8.9 mph 13.8 mph 62 % 0.00 in 0.0 W/m2 CLR
06:34 13.8 °F 3.2 °F 30.35 in West 10.0 mph 11.5 mph 62 % 0.00 in 0.0 W/m2 CLR
06:39 13.7 °F 3.1 °F 30.36 in West 7.1 mph 8.1 mph 62 % 0.00 in 0.0 W/m2 CLR
06:44 13.6 °F 3.0 °F 30.36 in West 3.5 mph 5.8 mph 62 % 0.00 in 0.0 W/m2 CLR
06:49 13.5 °F 3.2 °F 30.36 in West 3.3 mph 6.9 mph 63 % 0.00 in 0.0 W/m2 CLR
06:54 13.3 °F 3.0 °F 30.35 in WSW 4.2 mph 4.2 mph 63 % 0.00 in 0.0 W/m2 CLR
06:59 13.1 °F 2.9 °F 30.35 in WSW 5.3 mph 8.1 mph 63 % 0.00 in 0.0 W/m2 CLR
07:09 12.9 °F 3.0 °F 30.35 in West 4.5 mph 13.8 mph 64 % 0.00 in 0.0 W/m2 OVC
07:14 12.9 °F 3.3 °F 30.35 in West 5.4 mph 11.5 mph 65 % 0.00 in 0.0 W/m2 OVC
07:19 12.8 °F 3.2 °F 30.36 in WSW 6.1 mph 10.4 mph 65 % 0.00 in 0.0 W/m2 OVC
07:24 12.8 °F 3.2 °F 30.36 in West 8.6 mph 11.5 mph 65 % 0.00 in 0.0 W/m2 OVC
07:29 12.8 °F 3.6 °F 30.36 in West 6.0 mph 11.5 mph 66 % 0.00 in 7.0 W/m2 OVC
07:34 12.8 °F 3.6 °F 30.36 in WSW 6.0 mph 11.5 mph 66 % 0.00 in 9.0 W/m2 OVC
07:39 12.8 °F 3.6 °F 30.36 in West 4.2 mph 10.4 mph 66 % 0.00 in 11.0 W/m2 OVC
07:44 12.7 °F 3.5 °F 30.36 in West 8.6 mph 15.0 mph 66 % 0.00 in 14.0 W/m2 OVC
07:50 12.8 °F 3.9 °F 30.37 in West 10.2 mph 10.2 mph 67 % 0.00 in 18.0 W/m2 CLR
07:55 13.0 °F 4.1 °F 30.36 in SW 6.8 mph 6.9 mph 67 % 0.00 in 19.0 W/m2 CLR
08:00 13.2 °F 4.0 °F 30.37 in WNW 4.8 mph 8.1 mph 66 % 0.00 in 23.0 W/m2 CLR
08:05 13.2 °F 4.0 °F 30.37 in West 7.0 mph 12.0 mph 66 % 0.00 in 26.0 W/m2 FEW
08:10 13.3 °F 4.1 °F 30.37 in WSW 5.0 mph 10.0 mph 66 % 0.00 in 28.0 W/m2 SCT
08:15 13.5 °F 4.2 °F 30.37 in WSW 7.1 mph 11.5 mph 66 % 0.00 in 26.0 W/m2 SCT
08:20 13.7 °F 4.4 °F 30.37 in West 9.3 mph 11.0 mph 66 % 0.00 in 32.0 W/m2 SCT
08:31 14.1 °F 4.5 °F 30.37 in SW 9.0 mph 13.8 mph 65 % 0.00 in 53.0 W/m2 FEW
08:40 14.4 °F 4.8 °F 30.37 in West 15.6 mph 23.0 mph 65 % 0.00 in 47.0 W/m2 SCT
08:57 15.0 °F 4.7 °F 30.38 in West 10.8 mph 18.4 mph 63 % 0.00 in 156.0 W/m2 CLR
09:23 15.8 °F 5.1 °F 30.39 in WSW 6.7 mph 12.7 mph 62 % 0.00 in 132.0 W/m2 CLR
09:30 16.0 °F 5.3 °F 30.39 in WNW 10.2 mph 15.0 mph 62 % 0.00 in 183.0 W/m2 CLR
09:36 16.1 °F 5.0 °F 30.39 in West 10.1 mph 19.6 mph 61 % 0.00 in 213.0 W/m2 CLR
09:41 16.3 °F 5.2 °F 30.39 in West 8.8 mph 17.3 mph 61 % 0.00 in 207.0 W/m2 CLR
09:46 16.5 °F 5.4 °F 30.40 in West 7.6 mph 13.8 mph 61 % 0.00 in 294.0 W/m2 CLR
09:52 16.7 °F 5.2 °F 30.40 in WSW 9.4 mph 23.0 mph 60 % 0.00 in 288.0 W/m2 CLR
09:57 16.8 °F 5.3 °F 30.40 in WNW 12.4 mph 18.4 mph 60 % 0.00 in 253.0 W/m2 CLR
10:02 17.3 °F 6.1 °F 30.40 in WSW 10.1 mph 12.7 mph 61 % 0.00 in 192.0 W/m2 CLR
10:07 17.3 °F 5.8 °F 30.39 in WSW 9.0 mph 14.0 mph 60 % 0.00 in 320.0 W/m2 CLR
10:12 17.4 °F 5.9 °F 30.39 in West 7.5 mph 13.8 mph 60 % 0.00 in 274.0 W/m2 CLR
10:17 17.6 °F 6.1 °F 30.39 in WNW 8.8 mph 17.3 mph 60 % 0.00 in 236.0 W/m2 CLR
10:22 17.8 °F 5.9 °F 30.39 in WSW 9.5 mph 18.4 mph 59 % 0.00 in 190.0 W/m2 SCT
10:27 18.0 °F 6.1 °F 30.39 in WSW 13.4 mph 19.6 mph 59 % 0.00 in 123.0 W/m2 SCT
10:37 18.2 °F 6.3 °F 30.39 in West 9.7 mph 15.0 mph 59 % 0.00 in 227.0 W/m2 CLR
10:42 18.4 °F 6.1 °F 30.39 in West 8.6 mph 15.0 mph 58 % 0.00 in 399.0 W/m2 CLR
10:47 18.6 °F 6.3 °F 30.39 in SW 10.7 mph 18.4 mph 58 % 0.00 in 366.0 W/m2 CLR
10:52 18.8 °F 6.4 °F 30.39 in WNW 6.3 mph 12.7 mph 58 % 0.00 in 149.0 W/m2 BKN
10:57 19.3 °F 6.1 °F 30.39 in WNW 13.0 mph 20.0 mph 56 % 0.00 in 401.0 W/m2 CLR
11:02 19.5 °F 6.3 °F 30.39 in West 12.1 mph 18.4 mph 56 % 0.00 in 406.0 W/m2 CLR
11:07 19.5 °F 5.9 °F 30.38 in West 13.1 mph 25.0 mph 55 % 0.00 in 401.0 W/m2 CLR
11:12 19.5 °F 5.5 °F 30.38 in WNW 11.3 mph 13.8 mph 54 % 0.00 in 264.0 W/m2 CLR
11:17 19.7 °F 5.7 °F 30.38 in WNW 15.1 mph 20.7 mph 54 % 0.00 in 471.0 W/m2 CLR
11:22 20.3 °F 5.9 °F 30.38 in West 9.5 mph 16.1 mph 53 % 0.00 in 295.0 W/m2 CLR
11:27 20.7 °F 6.2 °F 30.38 in WNW 9.1 mph 12.0 mph 53 % 0.00 in 478.0 W/m2 CLR
11:32 20.8 °F 5.9 °F 30.37 in West 12.1 mph 15.0 mph 52 % 0.00 in 403.0 W/m2 CLR
11:37 21.2 °F 6.3 °F 30.37 in WNW 9.8 mph 15.0 mph 52 % 0.00 in 504.0 W/m2 CLR
11:42 21.7 °F 6.3 °F 30.37 in NNW 16.1 mph 21.9 mph 51 % 0.00 in 497.0 W/m2 CLR
11:47 21.8 °F 6.0 °F 30.37 in West 15.2 mph 24.2 mph 50 % 0.00 in 455.0 W/m2 CLR
11:57 22.1 °F 5.8 °F 30.37 in NNW 10.7 mph 17.3 mph 49 % 0.00 in 520.0 W/m2 CLR
12:02 22.2 °F 5.5 °F 30.36 in WNW 13.2 mph 25.3 mph 48 % 0.00 in 519.0 W/m2 CLR
12:07 22.3 °F 5.6 °F 30.36 in NW 11.0 mph 15.0 mph 48 % 0.00 in 527.0 W/m2 CLR
12:12 22.3 °F 5.1 °F 30.36 in WNW 12.8 mph 18.4 mph 47 % 0.00 in 527.0 W/m2 CLR
12:17 22.7 °F 5.9 °F 30.36 in WSW 10.7 mph 16.1 mph 48 % 0.00 in 564.0 W/m2 CLR
12:22 22.7 °F 5.9 °F 30.36 in WSW 11.3 mph 17.3 mph 48 % 0.00 in 575.0 W/m2 CLR
12:27 22.4 °F 4.7 °F 30.36 in WNW 11.6 mph 18.4 mph 46 % 0.00 in 105.0 W/m2 CLR
12:32 22.9 °F 5.6 °F 30.36 in WNW 15.6 mph 19.6 mph 47 % 0.00 in 459.0 W/m2 CLR
12:37 22.9 °F 5.2 °F 30.36 in WNW 12.6 mph 17.0 mph 46 % 0.00 in 563.0 W/m2 CLR
12:42 23.0 °F 5.3 °F 30.36 in WNW 10.5 mph 20.7 mph 46 % 0.00 in 517.0 W/m2 CLR
12:47 22.9 °F 4.7 °F 30.36 in NW 13.9 mph 23.0 mph 45 % 0.00 in 508.0 W/m2 CLR
12:52 22.7 °F 4.5 °F 30.36 in West 16.9 mph 24.2 mph 45 % 0.00 in 487.0 W/m2 CLR
12:57 22.4 °F 4.7 °F 30.36 in WNW 12.0 mph 16.1 mph 46 % 0.00 in 559.0 W/m2 CLR
13:02 23.1 °F 4.9 °F 30.36 in WNW 13.3 mph 21.9 mph 45 % 0.00 in 547.0 W/m2 CLR
13:07 23.8 °F 5.5 °F 30.36 in West 12.3 mph 18.4 mph 45 % 0.00 in 524.0 W/m2 CLR
13:12 23.8 °F 5.5 °F 30.36 in NW 13.7 mph 16.1 mph 45 % 0.00 in 512.0 W/m2 CLR
13:17 23.7 °F 4.4 °F 30.36 in West 16.6 mph 25.3 mph 43 % 0.00 in 570.0 W/m2 CLR
13:22 24.4 °F 5.6 °F 30.37 in WNW 11.9 mph 18.0 mph 44 % 0.00 in 519.0 W/m2 CLR
13:27 24.2 °F 5.4 °F 30.37 in WNW 13.2 mph 19.6 mph 44 % 0.00 in 357.0 W/m2 CLR
13:32 23.8 °F 4.0 °F 30.37 in NW 8.6 mph 13.8 mph 42 % 0.00 in 246.0 W/m2 CLR
13:37 23.7 °F 4.9 °F 30.37 in NNW 14.4 mph 21.9 mph 44 % 0.00 in 234.0 W/m2 CLR
13:42 23.0 °F 4.8 °F 30.37 in NW 12.8 mph 12.8 mph 45 % 0.00 in 190.0 W/m2 FEW
13:52 22.8 °F 5.6 °F 30.38 in NW 14.0 mph 20.7 mph 47 % 0.00 in 554.0 W/m2 CLR
13:57 23.0 °F 5.7 °F 30.39 in West 12.6 mph 19.6 mph 47 % 0.00 in 471.0 W/m2 CLR
14:02 23.0 °F 5.7 °F 30.39 in West 11.2 mph 16.1 mph 47 % 0.00 in 462.0 W/m2 CLR
14:07 23.0 °F 5.3 °F 30.39 in West 10.9 mph 19.6 mph 46 % 0.00 in 457.0 W/m2 CLR
14:12 23.9 °F 6.6 °F 30.39 in NW 8.0 mph 13.8 mph 47 % 0.00 in 526.0 W/m2 CLR
14:17 24.3 °F 6.9 °F 30.40 in West 11.6 mph 17.3 mph 47 % 0.00 in 543.0 W/m2 CLR
14:23 23.6 °F 5.8 °F 30.40 in WNW 12.3 mph 25.3 mph 46 % 0.00 in 401.0 W/m2 CLR
14:28 23.0 °F 6.2 °F 30.41 in NW 14.0 mph 15.0 mph 48 % 0.00 in 200.0 W/m2 CLR
14:33 22.4 °F 7.0 °F 30.41 in WNW 10.4 mph 19.0 mph 51 % 0.00 in 294.0 W/m2 BKN
14:38 22.4 °F 7.0 °F 30.42 in NW 18.7 mph 20.0 mph 51 % 0.00 in 392.0 W/m2 CLR
14:43 22.1 °F 6.7 °F 30.42 in West 14.0 mph 19.0 mph 51 % 0.00 in 69.0 W/m2 BKN
14:48 21.6 °F 6.7 °F 30.42 in NW 15.3 mph 20.7 mph 52 % 0.00 in 51.0 W/m2 OVC
14:53 21.6 °F 7.1 °F 30.42 in WNW 8.3 mph 13.8 mph 53 % 0.00 in 278.0 W/m2 CLR
14:58 21.4 °F 6.9 °F 30.42 in WNW 6.1 mph 13.8 mph 53 % 0.00 in 46.0 W/m2 OVC
15:03 21.1 °F 7.0 °F 30.42 in WNW 8.4 mph 13.0 mph 54 % 0.00 in 76.0 W/m2 BKN
15:08 20.9 °F 7.2 °F 30.43 in West 11.5 mph 17.3 mph 55 % 0.00 in 120.0 W/m2 CLR
15:13 21.2 °F 8.7 °F 30.43 in WNW 9.6 mph 15.0 mph 58 % 0.00 in 218.0 W/m2 CLR
15:18 21.5 °F 9.0 °F 30.43 in West 8.9 mph 12.7 mph 58 % 0.00 in 237.0 W/m2 CLR
15:23 21.7 °F 9.2 °F 30.43 in WSW 12.1 mph 17.3 mph 58 % 0.00 in 260.0 W/m2 CLR
15:28 22.1 °F 9.6 °F 30.43 in WNW 6.4 mph 11.5 mph 58 % 0.00 in 195.0 W/m2 CLR
15:33 22.0 °F 8.7 °F 30.43 in WNW 12.9 mph 18.4 mph 56 % 0.00 in 130.0 W/m2 CLR
15:38 21.3 °F 8.0 °F 30.44 in WSW 14.1 mph 19.6 mph 56 % 0.00 in 70.0 W/m2 SCT
15:43 20.9 °F 8.0 °F 30.44 in West 6.2 mph 13.8 mph 57 % 0.00 in 86.0 W/m2 CLR
15:48 20.6 °F 8.9 °F 30.44 in WNW 8.1 mph 15.0 mph 60 % 0.00 in 186.0 W/m2 CLR
15:53 20.7 °F 9.7 °F 30.45 in WSW 4.0 mph 6.9 mph 62 % 0.00 in 102.0 W/m2 CLR
15:58 20.4 °F 9.8 °F 30.45 in WNW 10.0 mph 16.1 mph 63 % 0.00 in 60.0 W/m2 SCT
16:03 20.0 °F 9.8 °F 30.46 in WSW 6.8 mph 10.4 mph 64 % 0.00 in 65.0 W/m2 CLR
16:08 19.9 °F 10.0 °F 30.46 in WSW 8.1 mph 13.8 mph 65 % 0.00 in 98.0 W/m2 CLR
16:13 19.8 °F 10.3 °F 30.46 in West 7.7 mph 13.8 mph 66 % 0.00 in 81.0 W/m2 CLR
16:18 19.7 °F 10.5 °F 30.47 in WNW 9.7 mph 16.1 mph 67 % 0.00 in 39.0 W/m2 CLR
16:23 19.5 °F 10.6 °F 30.47 in West 10.2 mph 15.0 mph 68 % 0.00 in 18.0 W/m2 SCT
16:28 19.4 °F 10.6 °F 30.47 in WNW 10.7 mph 14.0 mph 68 % 0.00 in 12.0 W/m2 BKN
16:33 19.2 °F 10.4 °F 30.47 in West 5.3 mph 11.5 mph 68 % 0.00 in 11.0 W/m2 SCT
16:38 19.1 °F 10.6 °F 30.47 in West 8.3 mph 11.5 mph 69 % 0.00 in 9.0 W/m2 CLR
16:43 19.1 °F 10.3 °F 30.47 in West 6.7 mph 11.5 mph 68 % 0.00 in 5.0 W/m2 CLR
16:48 19.2 °F 10.4 °F 30.47 in West 8.9 mph 15.0 mph 68 % 0.00 in 5.0 W/m2 OVC
16:53 19.3 °F 10.1 °F 30.48 in WSW 7.1 mph 11.0 mph 67 % 0.00 in 5.0 W/m2 OVC
16:58 19.3 °F 9.8 °F 30.48 in SW 2.4 mph 9.0 mph 66 % 0.00 in 0.0 W/m2 OVC
17:03 19.4 °F 9.2 °F 30.48 in NW 13.9 mph 19.6 mph 64 % 0.00 in 0.0 W/m2 CLR
17:08 19.6 °F 8.3 °F 30.48 in WNW 7.6 mph 13.0 mph 61 % 0.00 in 0.0 W/m2 CLR
17:13 19.8 °F 7.8 °F 30.49 in WNW 9.5 mph 17.3 mph 59 % 0.00 in 0.0 W/m2 CLR
17:18 19.9 °F 7.9 °F 30.49 in NW 10.6 mph 15.0 mph 59 % 0.00 in 0.0 W/m2 CLR
17:23 19.8 °F 9.2 °F 30.50 in West 9.5 mph 13.8 mph 63 % 0.00 in 0.0 W/m2 CLR
17:28 19.5 °F 10.0 °F 30.50 in NW 9.3 mph 17.3 mph 66 % 0.00 in 0.0 W/m2 CLR
17:33 19.1 °F 10.9 °F 30.51 in WNW 4.7 mph 11.5 mph 70 % 0.00 in 0.0 W/m2 CLR
17:38 18.7 °F 10.9 °F 30.50 in WNW 8.1 mph 12.7 mph 71 % 0.00 in 0.0 W/m2 CLR
17:43 18.2 °F 10.7 °F 30.51 in WSW 5.5 mph 10.4 mph 72 % 0.00 in 0.0 W/m2 CLR
17:48 18.1 °F 10.9 °F 30.52 in WNW 4.5 mph 11.0 mph 73 % 0.00 in 0.0 W/m2 CLR
17:53 17.9 °F 11.0 °F 30.51 in West 3.8 mph 5.8 mph 74 % 0.00 in 0.0 W/m2 CLR
17:58 17.8 °F 10.9 °F 30.52 in West 6.8 mph 11.5 mph 74 % 0.00 in 0.0 W/m2 CLR
18:03 17.8 °F 10.9 °F 30.52 in West 4.3 mph 7.0 mph 74 % 0.00 in 0.0 W/m2 CLR
18:08 17.8 °F 10.6 °F 30.53 in West 3.5 mph 8.1 mph 73 % 0.00 in 0.0 W/m2 CLR
18:13 17.8 °F 10.6 °F 30.53 in NW 1.5 mph 5.8 mph 73 % 0.00 in 0.0 W/m2 CLR
18:18 17.8 °F 10.6 °F 30.53 in West 6.0 mph 10.0 mph 73 % 0.00 in 0.0 W/m2 CLR
18:23 17.8 °F 10.3 °F 30.54 in West 9.5 mph 12.7 mph 72 % 0.00 in 0.0 W/m2 CLR
18:28 17.9 °F 10.1 °F 30.54 in West 8.0 mph 17.3 mph 71 % 0.00 in 0.0 W/m2 CLR
18:38 18.0 °F 9.5 °F 30.54 in West 5.5 mph 11.5 mph 69 % 0.00 in 0.0 W/m2 CLR
18:43 17.9 °F 9.1 °F 30.54 in West 6.1 mph 9.0 mph 68 % 0.00 in 0.0 W/m2 CLR
18:48 17.9 °F 8.8 °F 30.55 in WNW 7.8 mph 10.0 mph 67 % 0.00 in 0.0 W/m2 CLR
18:50 17.9 °F 8.8 °F 30.55 in WNW 5.0 mph 10.4 mph 67 % 0.00 in 0.0 W/m2 CLR
18:55 17.9 °F 8.5 °F 30.55 in WNW 5.1 mph 7.0 mph 66 % 0.00 in 0.0 W/m2 CLR
19:00 17.7 °F 7.9 °F 30.55 in WNW 4.3 mph 6.9 mph 65 % 0.00 in 0.0 W/m2 CLR
19:05 17.6 °F 7.5 °F 30.56 in WNW 5.2 mph 9.2 mph 64 % 0.00 in 0.0 W/m2 CLR
19:10 17.6 °F 7.1 °F 30.56 in West 6.5 mph 11.5 mph 63 % 0.00 in 0.0 W/m2 CLR
19:15 17.5 °F 6.7 °F 30.56 in NW 4.6 mph 5.0 mph 62 % 0.00 in 0.0 W/m2 CLR
19:20 17.5 °F 6.0 °F 30.57 in WNW 6.8 mph 9.2 mph 60 % 0.00 in 0.0 W/m2 CLR
19:25 17.4 °F 5.5 °F 30.57 in WNW 2.1 mph 4.6 mph 59 % 0.00 in 0.0 W/m2 CLR
19:30 17.3 °F 5.0 °F 30.57 in WNW 4.8 mph 11.0 mph 58 % 0.00 in 0.0 W/m2 CLR
19:35 17.4 °F 4.4 °F 30.58 in WNW 4.7 mph 6.9 mph 56 % 0.00 in 0.0 W/m2 CLR
19:40 17.5 °F 4.1 °F 30.58 in West 3.1 mph 7.0 mph 55 % 0.00 in 0.0 W/m2 CLR
19:45 17.5 °F 3.7 °F 30.58 in NW 4.1 mph 12.0 mph 54 % 0.00 in 0.0 W/m2 CLR
19:50 17.4 °F 3.6 °F 30.58 in NW 7.2 mph 11.5 mph 54 % 0.00 in 0.0 W/m2 CLR
20:00 17.5 °F 2.8 °F 30.59 in WNW 5.4 mph 11.5 mph 52 % 0.00 in 0.0 W/m2 CLR
20:05 17.3 °F 2.2 °F 30.59 in WNW 8.9 mph 13.8 mph 51 % 0.00 in 0.0 W/m2 CLR
20:10 17.2 °F 2.1 °F 30.59 in NW 7.6 mph 15.0 mph 51 % 0.00 in 0.0 W/m2 CLR
20:15 17.3 °F 1.8 °F 30.60 in WNW 6.0 mph 8.1 mph 50 % 0.00 in 0.0 W/m2 CLR
20:20 17.2 °F 1.3 °F 30.60 in WNW 8.6 mph 13.0 mph 49 % 0.00 in 0.0 W/m2 CLR
20:25 17.0 °F 1.1 °F 30.60 in NW 6.1 mph 9.2 mph 49 % 0.00 in 0.0 W/m2 CLR
20:30 17.0 °F 1.1 °F 30.61 in WNW 8.1 mph 10.4 mph 49 % 0.00 in 0.0 W/m2 CLR
20:35 16.9 °F 1.0 °F 30.61 in WNW 4.2 mph 13.0 mph 49 % 0.00 in 0.0 W/m2 CLR
20:40 16.9 °F 1.0 °F 30.61 in WNW 7.8 mph 11.5 mph 49 % 0.00 in 0.0 W/m2 CLR
20:45 16.9 °F 1.0 °F 30.62 in NW 7.8 mph 16.1 mph 49 % 0.00 in 0.0 W/m2 CLR
20:55 16.9 °F 1.0 °F 30.62 in NW 8.9 mph 17.3 mph 49 % 0.00 in 0.0 W/m2 CLR
21:00 16.8 °F 1.3 °F 30.63 in WNW 3.5 mph 10.4 mph 50 % 0.00 in 0.0 W/m2 CLR
21:05 16.7 °F 1.3 °F 30.63 in WNW 5.1 mph 10.4 mph 50 % 0.00 in 0.0 W/m2 CLR
21:10 16.6 °F 1.2 °F 30.63 in NW 2.6 mph 4.6 mph 50 % 0.00 in 0.0 W/m2 CLR
21:15 16.5 °F 0.6 °F 30.64 in WNW 5.2 mph 10.4 mph 49 % 0.00 in 0.0 W/m2 CLR
21:20 16.6 °F 0.7 °F 30.64 in WNW 5.8 mph 11.5 mph 49 % 0.00 in 0.0 W/m2 CLR
21:25 16.6 °F 0.7 °F 30.64 in NW 8.0 mph 13.8 mph 49 % 0.00 in 0.0 W/m2 CLR
21:30 16.4 °F 1.0 °F 30.64 in WNW 5.7 mph 9.2 mph 50 % 0.00 in 0.0 W/m2 CLR
21:35 16.3 °F 0.9 °F 30.64 in WNW 4.8 mph 9.2 mph 50 % 0.00 in 0.0 W/m2 CLR
21:40 16.2 °F 0.8 °F 30.65 in WNW 4.7 mph 11.5 mph 50 % 0.00 in 0.0 W/m2 CLR
21:45 16.2 °F 0.8 °F 30.65 in NW 6.2 mph 15.0 mph 50 % 0.00 in 0.0 W/m2 CLR
21:50 16.1 °F 0.7 °F 30.65 in NW 7.8 mph 10.4 mph 50 % 0.00 in 0.0 W/m2 CLR
21:55 16.1 °F 0.7 °F 30.65 in NW 4.1 mph 5.8 mph 50 % 0.00 in 0.0 W/m2 CLR
22:01 15.9 °F 0.9 °F 30.65 in NW 4.2 mph 9.0 mph 51 % 0.00 in 0.0 W/m2 CLR
22:06 15.8 °F 0.8 °F 30.65 in WNW 7.2 mph 11.5 mph 51 % 0.00 in 0.0 W/m2 CLR
22:11 15.8 °F 0.8 °F 30.66 in WNW 1.7 mph 4.6 mph 51 % 0.00 in 0.0 W/m2 CLR
22:16 15.6 °F 0.7 °F 30.66 in WNW 4.2 mph 6.9 mph 51 % 0.00 in 0.0 W/m2 CLR
22:21 15.5 °F 0.6 °F 30.66 in NW 3.6 mph 5.8 mph 51 % 0.00 in 0.0 W/m2 CLR
22:26 15.5 °F 0.6 °F 30.66 in NW 5.5 mph 9.2 mph 51 % 0.00 in 0.0 W/m2 CLR
22:31 15.6 °F 0.7 °F 30.67 in WNW 5.9 mph 10.4 mph 51 % 0.00 in 0.0 W/m2 CLR
22:36 15.6 °F 0.7 °F 30.67 in NW 4.8 mph 10.0 mph 51 % 0.00 in 0.0 W/m2 CLR
22:41 15.6 °F 0.7 °F 30.67 in WNW 4.6 mph 11.5 mph 51 % 0.00 in 0.0 W/m2 CLR
22:46 15.5 °F 1.0 °F 30.67 in NW 4.9 mph 9.2 mph 52 % 0.00 in 0.0 W/m2 CLR
22:51 15.6 °F 1.1 °F 30.67 in WNW 3.3 mph 9.0 mph 52 % 0.00 in 0.0 W/m2 CLR
22:56 15.5 °F 1.0 °F 30.67 in WNW 7.3 mph 12.7 mph 52 % 0.00 in 0.0 W/m2 CLR
23:01 15.6 °F 1.1 °F 30.67 in WNW 4.1 mph 9.2 mph 52 % 0.00 in 0.0 W/m2 CLR
23:06 15.6 °F 1.1 °F 30.67 in NW 4.7 mph 10.4 mph 52 % 0.00 in 0.0 W/m2 CLR
23:11 15.6 °F 1.1 °F 30.67 in WNW 9.1 mph 13.8 mph 52 % 0.00 in 0.0 W/m2 CLR
23:16 15.6 °F 1.1 °F 30.67 in WNW 3.2 mph 9.2 mph 52 % 0.00 in 0.0 W/m2 CLR
23:21 15.4 °F 0.9 °F 30.67 in NW 4.6 mph 10.4 mph 52 % 0.00 in 0.0 W/m2 CLR
23:26 15.3 °F 1.2 °F 30.67 in NW 6.2 mph 11.5 mph 53 % 0.00 in 0.0 W/m2 CLR
23:31 15.1 °F 1.4 °F 30.67 in NW 5.6 mph 10.4 mph 54 % 0.00 in 0.0 W/m2 CLR
23:36 14.9 °F 1.2 °F 30.67 in NW 5.2 mph 9.2 mph 54 % 0.00 in 0.0 W/m2 CLR
23:41 15.0 °F 1.3 °F 30.68 in NW 2.4 mph 5.8 mph 54 % 0.00 in 0.0 W/m2 CLR
23:51 15.0 °F 1.3 °F 30.67 in NW 9.1 mph 14.0 mph 54 % 0.00 in 0.0 W/m2 CLR
23:56 15.1 °F 1.4 °F 30.68 in NW 7.6 mph 12.7 mph 54 % 0.00 in 0.0 W/m2 CLR
Air Products Campus Weather
Compliments of Weather Underground - 3.25 mb